Terminal Aerodrome Forecast
Issued by NWS

Home | Current Version | Previous Version | Text Only | Print | Product List | Glossary On
Versions: 1 2 3 4 5 6 7 8 9 10 11 12 13 14 15 16 17 18 19 20
000
FTUS43 KGRR 250500
TAFJXN
TAF
KJXN 250540Z 2506/2606 22004KT 4SM BR SCT040
      TEMPO 2506/2507 2SM BR
     FM250845 23004KT 4SM BR SCT007 BKN025
     FM251400 28013G21KT P6SM SCT040
     FM260000 28006KT P6SM SKC=

USA.gov is the U.S. government's official web portal to all federal, state and local government web resources and services.